createdAt,value
2023-07-25T00:01:11.846Z,3.95
2023-07-25T00:04:13.981Z,3.85
2023-07-25T00:07:16.175Z,4.10
2023-07-25T00:10:19.404Z,4.40
2023-07-25T00:13:21.368Z,3.92
2023-07-25T00:16:23.373Z,3.97
2023-07-25T00:19:26.028Z,3.22
2023-07-25T00:22:28.086Z,3.17
2023-07-25T00:25:30.169Z,3.73
2023-07-25T00:28:32.238Z,4.22
2023-07-25T00:31:34.570Z,3.78
2023-07-25T00:34:36.773Z,4.00
2023-07-25T00:37:38.907Z,4.00
2023-07-25T00:40:41.010Z,3.90
2023-07-25T00:43:43.167Z,3.53
2023-07-25T00:46:45.470Z,3.70
2023-07-25T00:49:48.435Z,4.25
2023-07-25T00:52:51.453Z,3.97
2023-07-25T00:55:53.661Z,3.60
2023-07-25T00:58:56.181Z,3.90
2023-07-25T01:01:58.841Z,3.40
2023-07-25T01:05:00.952Z,3.45
2023-07-25T01:08:03.363Z,3.80
2023-07-25T01:11:06.429Z,3.47
2023-07-25T01:14:08.680Z,3.33
2023-07-25T01:17:16.555Z,3.25
2023-07-25T01:20:18.889Z,3.95
2023-07-25T01:23:23.445Z,3.00
2023-07-25T01:26:25.490Z,2.97
2023-07-25T01:29:27.541Z,2.53
2023-07-25T01:32:31.485Z,1.83
2023-07-25T01:35:33.698Z,2.00
2023-07-25T01:38:35.773Z,1.90
2023-07-25T01:41:39.362Z,2.23
2023-07-25T01:44:41.371Z,2.28
2023-07-25T01:47:43.414Z,2.28
2023-07-25T01:50:45.546Z,1.80
2023-07-25T01:53:47.578Z,1.87
2023-07-25T01:56:50.784Z,1.73
2023-07-25T01:59:53.462Z,1.90
2023-07-25T02:02:55.646Z,1.48
2023-07-25T02:05:57.767Z,2.08
2023-07-25T02:08:59.812Z,1.53
2023-07-25T02:12:02.465Z,1.90
2023-07-25T02:15:04.737Z,1.55
2023-07-25T02:18:06.778Z,1.30
2023-07-25T02:21:09.090Z,1.63
2023-07-25T02:24:11.431Z,1.33
2023-07-25T02:27:13.414Z,1.70
2023-07-25T02:30:15.454Z,1.52
2023-07-25T02:33:17.536Z,1.65
2023-07-25T02:36:19.675Z,2.00
2023-07-25T02:39:21.808Z,1.43
2023-07-25T02:42:23.842Z,1.50
2023-07-25T02:45:26.128Z,1.30
2023-07-25T02:48:28.199Z,1.63
2023-07-25T02:51:30.455Z,1.30
2023-07-25T02:54:32.699Z,1.60
2023-07-25T02:57:34.732Z,2.10
2023-07-25T03:00:36.824Z,1.50
2023-07-25T03:03:38.857Z,1.60
2023-07-25T03:06:40.979Z,2.38
2023-07-25T03:09:43.060Z,1.90
2023-07-25T03:12:45.133Z,1.60
2023-07-25T03:15:47.234Z,1.40
2023-07-25T03:18:49.304Z,1.80
2023-07-25T03:21:52.125Z,1.60
2023-07-25T03:24:54.293Z,1.73
2023-07-25T03:27:56.290Z,1.60
2023-07-25T03:30:58.425Z,2.03
2023-07-25T03:34:00.512Z,1.73
2023-07-25T03:37:02.549Z,1.20
2023-07-25T03:40:06.340Z,1.30
2023-07-25T03:43:10.891Z,1.17
2023-07-25T03:46:12.986Z,1.67
2023-07-25T03:49:17.119Z,1.85
2023-07-25T03:52:19.268Z,1.50
2023-07-25T03:55:21.441Z,1.53
2023-07-25T03:58:23.530Z,1.70
2023-07-25T04:01:25.635Z,1.70
2023-07-25T04:04:28.041Z,1.35
2023-07-25T04:07:30.129Z,1.55
2023-07-25T04:10:32.193Z,1.83
2023-07-25T04:13:34.326Z,1.50
2023-07-25T04:16:36.432Z,1.83
2023-07-25T04:19:38.453Z,1.70
2023-07-25T04:22:40.493Z,1.85
2023-07-25T04:25:42.767Z,2.03
2023-07-25T04:28:44.972Z,1.97
2023-07-25T04:31:48.878Z,1.60
2023-07-25T04:34:50.953Z,1.35
2023-07-25T04:37:53.170Z,1.70
2023-07-25T04:40:57.879Z,1.67
2023-07-25T04:43:59.894Z,1.80
2023-07-25T04:47:01.972Z,1.88
2023-07-25T04:50:04.281Z,1.70
2023-07-25T04:53:07.231Z,1.55
2023-07-25T04:56:10.359Z,1.73
2023-07-25T04:59:13.825Z,2.00
2023-07-25T05:02:15.841Z,2.20
2023-07-25T05:05:17.980Z,2.40
2023-07-25T05:08:20.188Z,3.47
2023-07-25T05:11:22.289Z,3.13
2023-07-25T05:14:24.466Z,2.20
2023-07-25T05:17:26.648Z,2.20
2023-07-25T05:20:28.896Z,2.53
2023-07-25T05:23:30.901Z,2.58
2023-07-25T05:26:33.020Z,2.03
2023-07-25T05:29:36.317Z,2.10
2023-07-25T05:32:39.813Z,2.00
2023-07-25T05:35:42.001Z,1.95
2023-07-25T05:38:44.073Z,2.55
2023-07-25T05:41:46.169Z,1.53
2023-07-25T05:44:48.263Z,1.97
2023-07-25T05:47:50.457Z,1.50
2023-07-25T05:50:53.421Z,1.70
2023-07-25T05:53:55.522Z,1.30
2023-07-25T05:56:57.604Z,1.70
2023-07-25T05:59:59.762Z,1.63
2023-07-25T06:03:02.227Z,1.50
2023-07-25T06:06:04.516Z,1.55
2023-07-25T06:09:06.506Z,1.83
2023-07-25T06:12:09.769Z,1.77
2023-07-25T06:15:11.852Z,1.80
2023-07-25T06:18:14.182Z,2.10
2023-07-25T06:21:16.247Z,2.00
2023-07-25T06:24:18.453Z,1.70
2023-07-25T06:27:20.421Z,1.70
2023-07-25T06:30:23.755Z,1.90
2023-07-25T06:33:25.858Z,1.48
2023-07-25T06:36:27.844Z,2.17
2023-07-25T06:39:29.902Z,2.03
2023-07-25T06:42:32.822Z,1.53
2023-07-25T06:45:37.558Z,1.60
2023-07-25T06:48:39.644Z,1.85
2023-07-25T06:51:41.762Z,2.10
2023-07-25T06:54:44.640Z,2.10
2023-07-25T06:57:47.241Z,2.37
2023-07-25T07:00:49.364Z,2.27
2023-07-25T07:03:51.395Z,2.58
2023-07-25T07:06:54.901Z,1.85
2023-07-25T07:09:57.014Z,1.40
2023-07-25T07:12:59.069Z,1.60
2023-07-25T07:16:03.944Z,1.50
2023-07-25T07:19:07.137Z,1.70
2023-07-25T07:22:10.244Z,1.70
2023-07-25T07:25:12.329Z,1.60
2023-07-25T07:28:14.397Z,1.60
2023-07-25T07:31:23.136Z,1.80
2023-07-25T07:34:26.510Z,2.03
2023-07-25T07:37:28.694Z,1.52
2023-07-25T07:40:30.756Z,1.98
2023-07-25T07:43:32.824Z,1.60
2023-07-25T07:46:36.028Z,1.63
2023-07-25T07:49:38.107Z,2.05
2023-07-25T07:55:44.517Z,1.75
2023-07-25T07:58:47.084Z,1.47
2023-07-25T08:01:49.403Z,1.80
2023-07-25T08:04:51.499Z,1.67
2023-07-25T08:07:53.563Z,1.35
2023-07-25T08:10:56.623Z,1.73
2023-07-25T08:13:59.199Z,2.50
2023-07-25T08:17:02.724Z,1.60
2023-07-25T08:20:05.631Z,2.00
2023-07-25T08:23:08.940Z,1.65
2023-07-25T08:26:10.945Z,1.80
2023-07-25T08:29:12.968Z,1.73
2023-07-25T08:32:16.008Z,2.00
2023-07-25T08:35:18.071Z,1.67
2023-07-25T08:38:20.071Z,1.60
2023-07-25T08:41:28.001Z,1.83
2023-07-25T08:44:33.889Z,1.50
2023-07-25T08:47:40.620Z,1.40
2023-07-25T08:50:47.104Z,2.08
2023-07-25T08:54:28.734Z,1.45
2023-07-25T08:57:32.287Z,2.60
2023-07-25T09:00:35.380Z,1.60
2023-07-25T09:03:39.108Z,2.27
2023-07-25T09:06:41.564Z,1.73
2023-07-25T09:09:43.557Z,1.42
2023-07-25T09:12:46.126Z,2.00
2023-07-25T09:15:48.230Z,2.10
2023-07-25T09:18:51.476Z,1.60
2023-07-25T09:22:00.069Z,1.42
2023-07-25T09:25:08.819Z,1.45
2023-07-25T09:28:10.826Z,1.70
2023-07-25T09:31:12.848Z,1.87
2023-07-25T09:34:17.798Z,2.10
2023-07-25T09:37:20.788Z,2.15
2023-07-25T09:40:23.639Z,1.90
2023-07-25T09:43:27.703Z,2.10
2023-07-25T09:46:29.778Z,2.30
2023-07-25T09:49:31.860Z,1.97
2023-07-25T09:52:43.933Z,2.10
2023-07-25T09:55:46.684Z,2.10
2023-07-25T09:59:06.540Z,2.10
2023-07-25T10:02:11.338Z,2.07
2023-07-25T10:05:14.367Z,2.30
2023-07-25T10:08:20.153Z,2.30
2023-07-25T10:11:23.210Z,1.75
2023-07-25T10:14:25.495Z,2.00
2023-07-25T10:17:27.612Z,2.00
2023-07-25T10:20:29.876Z,2.20
2023-07-25T10:23:35.759Z,2.13
2023-07-25T10:27:01.412Z,2.33
2023-07-25T10:30:03.737Z,2.40
2023-07-25T10:33:08.116Z,2.40
2023-07-25T10:36:24.359Z,2.63
2023-07-25T10:39:27.328Z,2.55
2023-07-25T10:42:51.739Z,2.40
2023-07-25T10:46:01.282Z,2.58
2023-07-25T10:49:05.563Z,2.50
2023-07-25T10:52:07.850Z,2.73
2023-07-25T10:55:11.845Z,2.90
2023-07-25T10:58:13.940Z,2.90
2023-07-25T11:01:37.488Z,3.30
2023-07-25T11:04:39.618Z,3.13
2023-07-25T11:07:50.238Z,2.20
2023-07-25T11:11:01.607Z,2.95
2023-07-25T11:14:08.378Z,2.58
2023-07-25T11:17:12.668Z,3.40
2023-07-25T11:20:19.771Z,2.80
2023-07-25T11:23:22.647Z,3.03
2023-07-25T11:26:24.801Z,2.85
2023-07-25T11:29:27.628Z,2.78
2023-07-25T11:32:29.816Z,2.88
2023-07-25T11:35:31.857Z,3.17
2023-07-25T11:38:37.395Z,3.00
2023-07-25T11:41:43.606Z,2.75
2023-07-25T11:44:45.936Z,2.72
2023-07-25T11:47:51.370Z,3.33
2023-07-25T11:50:54.286Z,2.67
2023-07-25T11:53:56.921Z,3.23
2023-07-25T11:56:59.209Z,3.45
2023-07-25T12:00:03.815Z,3.65
2023-07-25T12:03:20.727Z,3.45
2023-07-25T12:06:33.356Z,3.40
2023-07-25T12:09:35.849Z,2.93
2023-07-25T12:12:45.410Z,2.90
2023-07-25T12:15:56.044Z,3.13
2023-07-25T12:19:08.398Z,3.00
2023-07-25T12:22:10.431Z,3.23
2023-07-25T12:25:19.383Z,3.10
2023-07-25T12:28:21.375Z,3.17
2023-07-25T12:31:23.927Z,3.17
2023-07-25T12:34:26.160Z,3.20
2023-07-25T12:37:28.160Z,2.87
2023-07-25T12:40:30.957Z,3.20
2023-07-25T12:43:33.300Z,2.65
2023-07-25T12:46:35.977Z,3.75
2023-07-25T12:49:38.510Z,3.58
2023-07-25T12:52:40.848Z,4.20
2023-07-25T12:55:43.075Z,3.97
2023-07-25T12:58:45.087Z,3.45
2023-07-25T13:01:48.151Z,3.00
2023-07-25T13:04:50.227Z,2.97
2023-07-25T13:07:52.327Z,2.60
2023-07-25T13:10:54.743Z,3.33
2023-07-25T13:13:57.597Z,2.30
2023-07-25T13:16:59.956Z,2.55
2023-07-25T13:20:04.637Z,3.05
2023-07-25T13:23:10.485Z,3.27
2023-07-25T13:26:12.634Z,3.40
2023-07-25T13:29:14.718Z,3.60
2023-07-25T13:32:16.777Z,3.20
2023-07-25T13:35:18.815Z,3.53
2023-07-25T13:38:20.834Z,2.57
2023-07-25T13:41:22.959Z,2.20
2023-07-25T13:44:25.039Z,2.70
2023-07-25T13:47:27.238Z,2.25
2023-07-25T13:50:42.252Z,2.20
2023-07-25T13:53:48.833Z,2.33
2023-07-25T13:56:50.880Z,2.20
2023-07-25T13:59:52.952Z,2.22
2023-07-25T14:02:54.961Z,2.10
2023-07-25T14:05:57.040Z,2.55
2023-07-25T14:08:59.136Z,2.20
2023-07-25T14:12:01.325Z,2.50
2023-07-25T14:15:03.661Z,2.20
2023-07-25T14:18:07.022Z,2.42
2023-07-25T14:21:09.277Z,2.78
2023-07-25T14:24:11.361Z,3.03
2023-07-25T14:27:13.520Z,2.67
2023-07-25T14:30:15.897Z,2.75
2023-07-25T14:33:21.493Z,2.40
2023-07-25T14:36:23.673Z,2.00
2023-07-25T14:39:25.906Z,2.00
2023-07-25T14:42:27.940Z,2.00
2023-07-25T14:45:30.054Z,2.03
2023-07-25T14:48:32.171Z,2.20
2023-07-25T14:51:35.214Z,1.92
2023-07-25T14:54:37.304Z,1.90
2023-07-25T14:57:39.880Z,2.10
2023-07-25T15:00:42.060Z,2.10
2023-07-25T15:03:44.136Z,1.52
2023-07-25T15:06:46.141Z,1.70
2023-07-25T15:09:48.181Z,1.80
2023-07-25T15:12:50.393Z,1.30
2023-07-25T15:15:52.749Z,1.30
2023-07-25T15:18:54.858Z,1.30
2023-07-25T15:21:56.905Z,1.40
2023-07-25T15:24:59.028Z,1.77
2023-07-25T15:28:01.075Z,1.60
2023-07-25T15:31:03.180Z,1.50
2023-07-25T15:34:05.342Z,1.40
2023-07-25T15:37:07.569Z,1.30
2023-07-25T15:40:11.225Z,1.27
2023-07-25T15:43:13.370Z,1.30
2023-07-25T15:46:15.479Z,1.50
2023-07-25T15:49:18.072Z,1.20
2023-07-25T15:52:20.145Z,1.42
2023-07-25T15:55:24.635Z,1.33
2023-07-25T15:58:27.061Z,1.33
2023-07-25T16:01:29.370Z,1.42
2023-07-25T16:04:31.698Z,1.23
2023-07-25T16:07:35.790Z,1.40
2023-07-25T16:10:38.036Z,1.20
2023-07-25T16:13:41.046Z,1.40
2023-07-25T16:16:43.250Z,1.42
2023-07-25T16:19:45.337Z,1.60
2023-07-25T16:22:47.327Z,1.40
2023-07-25T16:25:51.468Z,1.30
2023-07-25T16:28:53.532Z,1.60
2023-07-25T16:31:55.866Z,1.40
2023-07-25T16:34:58.855Z,1.35
2023-07-25T16:38:03.011Z,1.48
2023-07-25T16:41:05.519Z,1.70
2023-07-25T16:44:07.676Z,1.70
2023-07-25T16:47:09.732Z,1.60
2023-07-25T16:50:11.871Z,1.30
2023-07-25T16:53:14.396Z,1.50
2023-07-25T16:56:16.462Z,1.40
2023-07-25T16:59:18.659Z,1.40
2023-07-25T17:02:21.279Z,1.35
2023-07-25T17:05:23.524Z,1.50
2023-07-25T17:08:25.635Z,1.60
2023-07-25T17:11:27.840Z,1.23
2023-07-25T17:14:29.948Z,1.10
2023-07-25T17:17:33.493Z,1.60
2023-07-25T17:20:35.730Z,1.85
2023-07-25T17:23:37.833Z,1.35
2023-07-25T17:26:39.855Z,1.43
2023-07-25T17:29:41.914Z,1.60
2023-07-25T17:32:43.999Z,1.13
2023-07-25T17:35:46.017Z,1.20
2023-07-25T17:38:48.046Z,1.45
2023-07-25T17:41:50.174Z,1.93
2023-07-25T17:44:52.270Z,1.27
2023-07-25T17:47:54.356Z,1.30
2023-07-25T17:50:56.544Z,1.50
2023-07-25T17:53:58.636Z,1.48
2023-07-25T17:57:00.641Z,1.20
2023-07-25T18:00:03.301Z,1.30
2023-07-25T18:03:14.539Z,1.42
2023-07-25T18:06:17.454Z,1.33
2023-07-25T18:09:19.585Z,1.55
2023-07-25T18:12:21.839Z,1.43
2023-07-25T18:15:23.986Z,1.50
2023-07-25T18:18:26.062Z,1.73
2023-07-25T18:21:28.091Z,1.60
2023-07-25T18:24:30.234Z,1.35
2023-07-25T18:27:32.229Z,1.53
2023-07-25T18:30:37.105Z,1.80
2023-07-25T18:33:39.869Z,1.90
2023-07-25T18:36:42.016Z,1.98
2023-07-25T18:39:44.838Z,1.60
2023-07-25T18:42:48.493Z,1.77
2023-07-25T18:45:50.462Z,2.00
2023-07-25T18:48:52.530Z,1.92
2023-07-25T18:51:54.559Z,1.70
2023-07-25T18:54:56.858Z,2.00
2023-07-25T18:57:59.070Z,1.70
2023-07-25T19:01:01.117Z,2.13
2023-07-25T19:04:03.284Z,1.83
2023-07-25T19:07:05.760Z,2.10
2023-07-25T19:10:08.314Z,2.03
2023-07-25T19:13:10.581Z,1.83
2023-07-25T19:16:13.117Z,2.50
2023-07-25T19:19:15.273Z,2.00
2023-07-25T19:22:17.311Z,1.90
2023-07-25T19:25:19.472Z,2.10
2023-07-25T19:28:21.834Z,2.10
2023-07-25T19:31:24.227Z,1.93
2023-07-25T19:34:26.322Z,1.95
2023-07-25T19:37:28.388Z,2.58
2023-07-25T19:40:34.021Z,2.05
2023-07-25T19:43:37.527Z,1.73
2023-07-25T19:46:39.593Z,1.90
2023-07-25T19:49:41.652Z,2.50
2023-07-25T19:52:43.704Z,2.28
2023-07-25T19:55:54.028Z,2.88
2023-07-25T19:58:56.078Z,2.47
2023-07-25T20:01:58.226Z,2.47
2023-07-25T20:05:00.408Z,2.75
2023-07-25T20:08:02.559Z,2.88
2023-07-25T20:11:04.962Z,2.40
2023-07-25T20:14:09.613Z,2.80
2023-07-25T20:17:11.764Z,3.20
2023-07-25T20:20:13.837Z,2.80
2023-07-25T20:23:16.265Z,2.88
2023-07-25T20:26:19.216Z,2.30
2023-07-25T20:29:21.297Z,2.70
2023-07-25T20:32:23.513Z,2.90
2023-07-25T20:35:25.751Z,2.88
2023-07-25T20:38:27.880Z,2.60
2023-07-25T20:41:30.029Z,2.75
2023-07-25T20:44:32.166Z,3.20
2023-07-25T20:47:34.562Z,3.13
2023-07-25T20:50:36.749Z,2.80
2023-07-25T20:53:38.892Z,3.30
2023-07-25T20:56:41.039Z,2.60
2023-07-25T20:59:43.116Z,2.77
2023-07-25T21:02:45.380Z,2.70
2023-07-25T21:05:47.455Z,2.80
2023-07-25T21:08:49.533Z,3.08
2023-07-25T21:11:51.583Z,3.00
2023-07-25T21:14:53.561Z,2.87
2023-07-25T21:18:06.894Z,3.33
2023-07-25T21:21:14.918Z,2.70
2023-07-25T21:24:17.110Z,2.80
2023-07-25T21:27:21.121Z,2.78
2023-07-25T21:30:24.651Z,3.27
2023-07-25T21:33:27.267Z,2.60
2023-07-25T21:36:30.462Z,2.63
2023-07-25T21:39:33.357Z,2.72
2023-07-25T21:42:35.472Z,3.08
2023-07-25T21:45:37.966Z,2.73
2023-07-25T21:48:40.190Z,3.70
2023-07-25T21:51:42.352Z,2.90
2023-07-25T21:54:44.883Z,3.00
2023-07-25T21:57:47.007Z,2.75
2023-07-25T22:00:49.116Z,3.03
2023-07-25T22:03:51.222Z,3.20
2023-07-25T22:06:53.300Z,3.30
2023-07-25T22:09:55.407Z,3.38
2023-07-25T22:12:57.891Z,3.20
2023-07-25T22:15:59.981Z,2.90
2023-07-25T22:19:02.053Z,3.20
2023-07-25T22:22:04.252Z,3.53
2023-07-25T22:25:06.811Z,3.00
2023-07-25T22:28:09.410Z,3.22
2023-07-25T22:31:11.488Z,3.03
2023-07-25T22:34:13.597Z,2.70
2023-07-25T22:37:15.545Z,2.65
2023-07-25T22:40:17.568Z,2.80
2023-07-25T22:43:19.571Z,2.88
2023-07-25T22:46:21.739Z,2.97
2023-07-25T22:49:23.806Z,3.53
2023-07-25T22:52:27.580Z,2.90
2023-07-25T22:55:29.666Z,3.30
2023-07-25T22:58:31.745Z,3.58
2023-07-25T23:01:33.805Z,3.40
2023-07-25T23:04:35.756Z,2.80
2023-07-25T23:07:37.760Z,3.00
2023-07-25T23:10:39.775Z,3.00
2023-07-25T23:13:41.784Z,2.58
2023-07-25T23:16:43.771Z,2.30
2023-07-25T23:19:45.811Z,2.15
2023-07-25T23:22:47.798Z,2.38
2023-07-25T23:25:49.920Z,2.22
2023-07-25T23:28:51.915Z,1.92
2023-07-25T23:31:53.913Z,2.23
2023-07-25T23:34:55.988Z,2.03
2023-07-25T23:37:58.340Z,1.92
2023-07-25T23:41:00.374Z,1.70
2023-07-25T23:44:02.431Z,1.88
2023-07-25T23:47:05.518Z,2.20
2023-07-25T23:50:07.892Z,2.00
2023-07-25T23:53:10.170Z,2.65
2023-07-25T23:56:12.278Z,2.33
2023-07-25T23:59:14.298Z,2.40
